Solomon, AZ (85551)

3:37 AM MST on August 27, 2016 (GMT -0700)
Just Ducky | | Change Station

Elev 2976 ft 32.81 °N, 109.71 °W | Updated 12 minutes ago

Clear
Clear
63.1 °F
Feels Like 63.1 °F
N
0.0
Wind Variable Wind from South

Today
High -- | Low -- °F
--% Chance of Precip.
Yesterday
High -- | Low -- °F
Precip. -- in
Pressure 29.87 in
Visibility 10.0 miles
Clouds Clear
Dew Point 55 °F
Humidity 76%
Rainfall 0.00 in
Snow Depth Not available.
5:50 AM 6:48 PM
Waning Crescent, 25% visible
METAR KSAD 270951Z AUTO 06005KT 10SM CLR 18/14 A3001 RMK AO2 SLP114 T01780144
Pressure 29.87 in
Visibility 10.0 miles
Clouds Clear
Dew Point 55 °F
Humidity 76%
Rainfall 0.00 in
Snow Depth Not available.
5:50 AM 6:48 PM
Waning Crescent, 25% visible
METAR KSAD 270951Z AUTO 06005KT 10SM CLR 18/14 A3001 RMK AO2 SLP114 T01780144

10-Day Weather Forecast

Almanac

Astronomy

Aug. 27, 2016 Rise Set
Actual Time
Civil Twilight
Nautical Twilight
Astronomical Twilight
Moon
Length of Visible Light
Length of Day
Tomorrow will be .
, % of the Moon is Illuminated

Today's Extremes

State Highs State Lows

Community

WunderPhotos

Upload Photos

1,935,321 photos uploaded!

WunderBlog® & News

Nearby

Air Quality

  Air Quality AQ Index Pollutant
Not available.

Snow Depth

Station Depth Elevation

Earthquake Activity

City Distance Mag. Time & Date
Minimum magnitude displayed is 2.5.

Coastal Water Temperatures

Place Temperature

Stations

Nearby Weather Stations

Station Location Temp. Windchill Dew Point Humidity Wind Precip. Elev Updated Type
                   

Watches & Warnings

There are currently no watches in effect.